sensor_id;sensor_type;location;lat;lon;timestamp;P1;durP1;ratioP1;P2;durP2;ratioP2
62931;SDS011;49037;41.898;25.004;2023-07-16T00:02:02;11.80;;;7.88;;
62931;SDS011;49037;41.898;25.004;2023-07-16T00:07:49;13.07;;;7.70;;
62931;SDS011;49037;41.898;25.004;2023-07-16T00:10:17;15.10;;;8.93;;
62931;SDS011;49037;41.898;25.004;2023-07-16T00:12:48;12.73;;;8.73;;
62931;SDS011;49037;41.898;25.004;2023-07-16T00:15:16;12.88;;;8.00;;
62931;SDS011;49037;41.898;25.004;2023-07-16T00:17:43;10.15;;;7.63;;
62931;SDS011;49037;41.898;25.004;2023-07-16T00:20:13;13.70;;;8.38;;
62931;SDS011;49037;41.898;25.004;2023-07-16T00:25:30;12.13;;;8.15;;
62931;SDS011;49037;41.898;25.004;2023-07-16T00:28:00;13.82;;;8.50;;
62931;SDS011;49037;41.898;25.004;2023-07-16T00:43:16;14.63;;;8.30;;
62931;SDS011;49037;41.898;25.004;2023-07-16T00:56:51;11.75;;;8.18;;
62931;SDS011;49037;41.898;25.004;2023-07-16T00:59:20;12.65;;;8.55;;
62931;SDS011;49037;41.898;25.004;2023-07-16T01:01:46;13.80;;;8.48;;
62931;SDS011;49037;41.898;25.004;2023-07-16T01:04:18;13.73;;;8.43;;
62931;SDS011;49037;41.898;25.004;2023-07-16T01:06:53;14.05;;;8.60;;
62931;SDS011;49037;41.898;25.004;2023-07-16T01:10:16;14.87;;;9.37;;
62931;SDS011;49037;41.898;25.004;2023-07-16T01:14:18;13.82;;;8.02;;
62931;SDS011;49037;41.898;25.004;2023-07-16T01:19:13;12.90;;;7.70;;
62931;SDS011;49037;41.898;25.004;2023-07-16T01:29:30;9.98;;;6.68;;
62931;SDS011;49037;41.898;25.004;2023-07-16T01:32:30;11.63;;;7.65;;
62931;SDS011;49037;41.898;25.004;2023-07-16T01:34:56;10.65;;;7.05;;
62931;SDS011;49037;41.898;25.004;2023-07-16T01:37:22;12.05;;;7.20;;
62931;SDS011;49037;41.898;25.004;2023-07-16T01:39:48;9.90;;;7.45;;
62931;SDS011;49037;41.898;25.004;2023-07-16T01:42:14;12.68;;;8.07;;
62931;SDS011;49037;41.898;25.004;2023-07-16T01:44:40;14.23;;;7.65;;
62931;SDS011;49037;41.898;25.004;2023-07-16T01:47:09;14.55;;;8.10;;
62931;SDS011;49037;41.898;25.004;2023-07-16T01:49:39;13.80;;;8.18;;
62931;SDS011;49037;41.898;25.004;2023-07-16T01:52:06;14.95;;;8.45;;
62931;SDS011;49037;41.898;25.004;2023-07-16T01:54:35;12.43;;;7.85;;
62931;SDS011;49037;41.898;25.004;2023-07-16T01:57:00;10.93;;;7.47;;
62931;SDS011;49037;41.898;25.004;2023-07-16T01:59:26;11.80;;;7.97;;
62931;SDS011;49037;41.898;25.004;2023-07-16T02:01:52;11.18;;;7.57;;
62931;SDS011;49037;41.898;25.004;2023-07-16T02:04:20;12.02;;;7.60;;
62931;SDS011;49037;41.898;25.004;2023-07-16T02:06:45;12.43;;;8.25;;
62931;SDS011;49037;41.898;25.004;2023-07-16T02:09:12;10.85;;;7.95;;
62931;SDS011;49037;41.898;25.004;2023-07-16T02:11:44;14.20;;;7.53;;
62931;SDS011;49037;41.898;25.004;2023-07-16T02:14:12;11.18;;;7.55;;
62931;SDS011;49037;41.898;25.004;2023-07-16T02:18:55;12.68;;;8.02;;
62931;SDS011;49037;41.898;25.004;2023-07-16T02:21:20;11.00;;;7.38;;
62931;SDS011;49037;41.898;25.004;2023-07-16T02:23:46;13.75;;;7.70;;
62931;SDS011;49037;41.898;25.004;2023-07-16T02:27:51;15.20;;;7.50;;
62931;SDS011;49037;41.898;25.004;2023-07-16T02:30:16;13.05;;;7.78;;
62931;SDS011;49037;41.898;25.004;2023-07-16T02:32:50;10.35;;;7.65;;
62931;SDS011;49037;41.898;25.004;2023-07-16T02:35:15;9.75;;;6.68;;
62931;SDS011;49037;41.898;25.004;2023-07-16T02:37:45;12.68;;;7.35;;
62931;SDS011;49037;41.898;25.004;2023-07-16T02:40:11;10.23;;;7.03;;
62931;SDS011;49037;41.898;25.004;2023-07-16T02:42:36;9.93;;;6.47;;
62931;SDS011;49037;41.898;25.004;2023-07-16T02:46:57;11.02;;;7.10;;
62931;SDS011;49037;41.898;25.004;2023-07-16T02:49:24;11.23;;;7.47;;
62931;SDS011;49037;41.898;25.004;2023-07-16T02:51:52;11.35;;;7.10;;
62931;SDS011;49037;41.898;25.004;2023-07-16T02:54:19;9.82;;;7.32;;
62931;SDS011;49037;41.898;25.004;2023-07-16T02:56:45;14.45;;;7.15;;
62931;SDS011;49037;41.898;25.004;2023-07-16T03:00:12;10.02;;;7.43;;
62931;SDS011;49037;41.898;25.004;2023-07-16T03:02:38;11.60;;;7.05;;
62931;SDS011;49037;41.898;25.004;2023-07-16T03:05:09;10.70;;;7.18;;
62931;SDS011;49037;41.898;25.004;2023-07-16T03:07:39;11.50;;;7.60;;
62931;SDS011;49037;41.898;25.004;2023-07-16T03:10:08;10.80;;;7.40;;
62931;SDS011;49037;41.898;25.004;2023-07-16T03:12:34;12.20;;;7.47;;
62931;SDS011;49037;41.898;25.004;2023-07-16T03:14:59;11.93;;;7.35;;
62931;SDS011;49037;41.898;25.004;2023-07-16T03:17:27;10.82;;;7.28;;
62931;SDS011;49037;41.898;25.004;2023-07-16T03:21:06;10.95;;;6.70;;
62931;SDS011;49037;41.898;25.004;2023-07-16T03:25:09;11.52;;;8.00;;
62931;SDS011;49037;41.898;25.004;2023-07-16T03:31:55;12.65;;;8.15;;
62931;SDS011;49037;41.898;25.004;2023-07-16T03:40:16;10.30;;;7.60;;
62931;SDS011;49037;41.898;25.004;2023-07-16T03:42:55;10.63;;;7.00;;
62931;SDS011;49037;41.898;25.004;2023-07-16T03:51:17;12.60;;;7.57;;
62931;SDS011;49037;41.898;25.004;2023-07-16T03:53:43;10.65;;;7.18;;
62931;SDS011;49037;41.898;25.004;2023-07-16T03:56:11;9.98;;;7.13;;
62931;SDS011;49037;41.898;25.004;2023-07-16T04:05:38;12.70;;;7.38;;
62931;SDS011;49037;41.898;25.004;2023-07-16T04:08:06;11.98;;;8.10;;
62931;SDS011;49037;41.898;25.004;2023-07-16T04:10:56;10.65;;;7.20;;
62931;SDS011;49037;41.898;25.004;2023-07-16T04:13:49;11.98;;;7.68;;
62931;SDS011;49037;41.898;25.004;2023-07-16T04:16:42;11.95;;;7.97;;
62931;SDS011;49037;41.898;25.004;2023-07-16T04:28:52;11.70;;;7.68;;
62931;SDS011;49037;41.898;25.004;2023-07-16T04:31:38;11.70;;;7.18;;
62931;SDS011;49037;41.898;25.004;2023-07-16T04:34:12;11.55;;;6.53;;
62931;SDS011;49037;41.898;25.004;2023-07-16T04:36:38;9.60;;;6.43;;
62931;SDS011;49037;41.898;25.004;2023-07-16T04:39:10;9.93;;;6.80;;
62931;SDS011;49037;41.898;25.004;2023-07-16T04:41:41;9.82;;;7.47;;
62931;SDS011;49037;41.898;25.004;2023-07-16T04:44:29;10.27;;;7.03;;
62931;SDS011;49037;41.898;25.004;2023-07-16T04:46:57;9.90;;;6.50;;
62931;SDS011;49037;41.898;25.004;2023-07-16T04:49:25;11.68;;;7.22;;
62931;SDS011;49037;41.898;25.004;2023-07-16T04:51:57;8.95;;;6.40;;
62931;SDS011;49037;41.898;25.004;2023-07-16T04:54:37;9.02;;;6.28;;
62931;SDS011;49037;41.898;25.004;2023-07-16T04:57:06;10.65;;;6.22;;
62931;SDS011;49037;41.898;25.004;2023-07-16T04:59:35;9.10;;;6.50;;
62931;SDS011;49037;41.898;25.004;2023-07-16T05:03:26;8.75;;;6.45;;
62931;SDS011;49037;41.898;25.004;2023-07-16T05:06:02;9.98;;;5.78;;
62931;SDS011;49037;41.898;25.004;2023-07-16T05:19:40;8.90;;;6.10;;
62931;SDS011;49037;41.898;25.004;2023-07-16T05:22:09;10.02;;;6.28;;
62931;SDS011;49037;41.898;25.004;2023-07-16T05:24:43;9.75;;;6.65;;
62931;SDS011;49037;41.898;25.004;2023-07-16T05:27:59;10.27;;;6.10;;
62931;SDS011;49037;41.898;25.004;2023-07-16T05:44:46;9.00;;;6.33;;
62931;SDS011;49037;41.898;25.004;2023-07-16T05:47:43;9.60;;;7.10;;
62931;SDS011;49037;41.898;25.004;2023-07-16T05:50:11;12.07;;;7.00;;
62931;SDS011;49037;41.898;25.004;2023-07-16T05:52:39;12.95;;;6.65;;
62931;SDS011;49037;41.898;25.004;2023-07-16T05:55:42;8.90;;;6.57;;
62931;SDS011;49037;41.898;25.004;2023-07-16T05:58:16;12.00;;;6.80;;
62931;SDS011;49037;41.898;25.004;2023-07-16T06:00:41;11.68;;;6.88;;
62931;SDS011;49037;41.898;25.004;2023-07-16T06:03:51;10.13;;;6.95;;
62931;SDS011;49037;41.898;25.004;2023-07-16T06:06:16;10.52;;;7.25;;
62931;SDS011;49037;41.898;25.004;2023-07-16T06:08:56;13.50;;;6.85;;
62931;SDS011;49037;41.898;25.004;2023-07-16T06:11:22;13.00;;;6.97;;
62931;SDS011;49037;41.898;25.004;2023-07-16T06:13:53;10.07;;;6.57;;
62931;SDS011;49037;41.898;25.004;2023-07-16T06:16:19;10.07;;;6.63;;
62931;SDS011;49037;41.898;25.004;2023-07-16T06:18:45;8.80;;;6.60;;
62931;SDS011;49037;41.898;25.004;2023-07-16T06:21:10;12.93;;;7.00;;
62931;SDS011;49037;41.898;25.004;2023-07-16T06:23:37;10.50;;;6.45;;
62931;SDS011;49037;41.898;25.004;2023-07-16T06:26:03;8.38;;;6.20;;
62931;SDS011;49037;41.898;25.004;2023-07-16T06:28:29;12.13;;;8.48;;
62931;SDS011;49037;41.898;25.004;2023-07-16T06:33:13;13.93;;;8.13;;
62931;SDS011;49037;41.898;25.004;2023-07-16T06:35:47;10.02;;;7.30;;
62931;SDS011;49037;41.898;25.004;2023-07-16T06:38:15;12.30;;;7.70;;
62931;SDS011;49037;41.898;25.004;2023-07-16T06:40:51;9.63;;;7.57;;
62931;SDS011;49037;41.898;25.004;2023-07-16T06:46:09;9.32;;;7.10;;
62931;SDS011;49037;41.898;25.004;2023-07-16T06:49:19;14.07;;;7.75;;
62931;SDS011;49037;41.898;25.004;2023-07-16T06:51:45;8.68;;;6.45;;
62931;SDS011;49037;41.898;25.004;2023-07-16T06:54:10;11.30;;;7.32;;
62931;SDS011;49037;41.898;25.004;2023-07-16T06:59:15;13.98;;;8.00;;
62931;SDS011;49037;41.898;25.004;2023-07-16T07:01:43;11.07;;;7.75;;
62931;SDS011;49037;41.898;25.004;2023-07-16T07:04:08;9.90;;;7.40;;
62931;SDS011;49037;41.898;25.004;2023-07-16T07:06:37;12.30;;;8.20;;
62931;SDS011;49037;41.898;25.004;2023-07-16T07:09:08;9.63;;;7.43;;
62931;SDS011;49037;41.898;25.004;2023-07-16T07:11:34;8.65;;;7.70;;
62931;SDS011;49037;41.898;25.004;2023-07-16T07:14:20;8.82;;;7.47;;
62931;SDS011;49037;41.898;25.004;2023-07-16T07:20:22;11.75;;;7.43;;
62931;SDS011;49037;41.898;25.004;2023-07-16T07:23:06;11.65;;;7.93;;
62931;SDS011;49037;41.898;25.004;2023-07-16T07:25:33;11.45;;;7.88;;
62931;SDS011;49037;41.898;25.004;2023-07-16T07:27:59;14.00;;;7.97;;
62931;SDS011;49037;41.898;25.004;2023-07-16T07:30:29;11.65;;;7.85;;
62931;SDS011;49037;41.898;25.004;2023-07-16T07:32:55;13.35;;;8.30;;
62931;SDS011;49037;41.898;25.004;2023-07-16T07:35:24;11.77;;;7.72;;
62931;SDS011;49037;41.898;25.004;2023-07-16T07:37:52;13.55;;;8.07;;
62931;SDS011;49037;41.898;25.004;2023-07-16T07:40:23;11.02;;;7.60;;
62931;SDS011;49037;41.898;25.004;2023-07-16T07:43:33;11.45;;;8.13;;
62931;SDS011;49037;41.898;25.004;2023-07-16T07:45:58;10.02;;;7.82;;
62931;SDS011;49037;41.898;25.004;2023-07-16T07:48:28;14.30;;;7.80;;
62931;SDS011;49037;41.898;25.004;2023-07-16T07:50:54;11.18;;;8.40;;
62931;SDS011;49037;41.898;25.004;2023-07-16T07:53:22;12.10;;;8.30;;
62931;SDS011;49037;41.898;25.004;2023-07-16T07:55:48;12.10;;;9.48;;
62931;SDS011;49037;41.898;25.004;2023-07-16T07:58:13;11.75;;;9.27;;
62931;SDS011;49037;41.898;25.004;2023-07-16T08:00:39;11.85;;;8.68;;
62931;SDS011;49037;41.898;25.004;2023-07-16T08:03:04;13.18;;;7.97;;
62931;SDS011;49037;41.898;25.004;2023-07-16T08:05:33;11.50;;;8.90;;
62931;SDS011;49037;41.898;25.004;2023-07-16T08:08:07;11.25;;;8.57;;
62931;SDS011;49037;41.898;25.004;2023-07-16T08:10:51;11.57;;;8.65;;
62931;SDS011;49037;41.898;25.004;2023-07-16T08:16:13;11.23;;;8.55;;
62931;SDS011;49037;41.898;25.004;2023-07-16T08:18:52;13.70;;;8.77;;
62931;SDS011;49037;41.898;25.004;2023-07-16T08:21:23;10.13;;;8.20;;
62931;SDS011;49037;41.898;25.004;2023-07-16T08:24:01;12.55;;;8.60;;
62931;SDS011;49037;41.898;25.004;2023-07-16T08:26:32;12.32;;;8.60;;
62931;SDS011;49037;41.898;25.004;2023-07-16T08:29:05;11.77;;;8.23;;
62931;SDS011;49037;41.898;25.004;2023-07-16T08:31:50;12.82;;;8.18;;
62931;SDS011;49037;41.898;25.004;2023-07-16T08:34:18;14.65;;;7.97;;
62931;SDS011;49037;41.898;25.004;2023-07-16T08:36:44;11.10;;;8.25;;
62931;SDS011;49037;41.898;25.004;2023-07-16T08:39:12;11.77;;;7.68;;
62931;SDS011;49037;41.898;25.004;2023-07-16T08:44:43;12.90;;;8.45;;
62931;SDS011;49037;41.898;25.004;2023-07-16T08:47:14;11.52;;;8.05;;
62931;SDS011;49037;41.898;25.004;2023-07-16T08:50:09;11.55;;;8.63;;
62931;SDS011;49037;41.898;25.004;2023-07-16T08:52:58;11.55;;;8.52;;
62931;SDS011;49037;41.898;25.004;2023-07-16T08:55:29;13.45;;;7.68;;
62931;SDS011;49037;41.898;25.004;2023-07-16T08:58:44;13.10;;;7.55;;
62931;SDS011;49037;41.898;25.004;2023-07-16T09:01:13;12.45;;;8.30;;
62931;SDS011;49037;41.898;25.004;2023-07-16T09:03:53;9.93;;;8.23;;
62931;SDS011;49037;41.898;25.004;2023-07-16T09:09:58;10.70;;;7.95;;
62931;SDS011;49037;41.898;25.004;2023-07-16T09:12:25;12.38;;;7.63;;
62931;SDS011;49037;41.898;25.004;2023-07-16T09:14:53;8.95;;;7.60;;
62931;SDS011;49037;41.898;25.004;2023-07-16T09:17:26;11.18;;;7.75;;
62931;SDS011;49037;41.898;25.004;2023-07-16T09:19:54;11.63;;;7.68;;
62931;SDS011;49037;41.898;25.004;2023-07-16T09:22:20;10.02;;;7.60;;
62931;SDS011;49037;41.898;25.004;2023-07-16T09:24:49;10.98;;;8.02;;
62931;SDS011;49037;41.898;25.004;2023-07-16T09:27:17;9.93;;;7.95;;
62931;SDS011;49037;41.898;25.004;2023-07-16T09:34:37;13.02;;;8.15;;
62931;SDS011;49037;41.898;25.004;2023-07-16T09:37:07;8.98;;;6.95;;
62931;SDS011;49037;41.898;25.004;2023-07-16T09:39:38;8.82;;;7.32;;
62931;SDS011;49037;41.898;25.004;2023-07-16T09:42:29;9.57;;;7.38;;
62931;SDS011;49037;41.898;25.004;2023-07-16T09:45:40;11.32;;;7.40;;
62931;SDS011;49037;41.898;25.004;2023-07-16T09:48:35;9.90;;;7.35;;
62931;SDS011;49037;41.898;25.004;2023-07-16T09:51:27;13.63;;;7.28;;
62931;SDS011;49037;41.898;25.004;2023-07-16T09:53:59;9.25;;;7.18;;
62931;SDS011;49037;41.898;25.004;2023-07-16T09:59:28;8.60;;;6.75;;
62931;SDS011;49037;41.898;25.004;2023-07-16T10:01:59;9.18;;;6.95;;
62931;SDS011;49037;41.898;25.004;2023-07-16T10:07:24;11.07;;;7.03;;
62931;SDS011;49037;41.898;25.004;2023-07-16T10:10:15;9.18;;;6.95;;
62931;SDS011;49037;41.898;25.004;2023-07-16T10:12:55;9.95;;;6.75;;
62931;SDS011;49037;41.898;25.004;2023-07-16T10:15:31;12.25;;;7.32;;
62931;SDS011;49037;41.898;25.004;2023-07-16T10:17:57;9.40;;;6.30;;
62931;SDS011;49037;41.898;25.004;2023-07-16T10:20:36;8.50;;;6.35;;
62931;SDS011;49037;41.898;25.004;2023-07-16T10:23:17;8.30;;;6.90;;
62931;SDS011;49037;41.898;25.004;2023-07-16T10:25:59;10.20;;;6.90;;
62931;SDS011;49037;41.898;25.004;2023-07-16T10:28:30;9.95;;;6.47;;
62931;SDS011;49037;41.898;25.004;2023-07-16T10:31:26;13.20;;;6.65;;
62931;SDS011;49037;41.898;25.004;2023-07-16T10:34:00;8.00;;;6.50;;
62931;SDS011;49037;41.898;25.004;2023-07-16T10:36:30;8.32;;;6.55;;
62931;SDS011;49037;41.898;25.004;2023-07-16T10:42:21;8.45;;;6.68;;
62931;SDS011;49037;41.898;25.004;2023-07-16T10:45:28;12.45;;;8.30;;
62931;SDS011;49037;41.898;25.004;2023-07-16T10:48:16;10.23;;;6.95;;
62931;SDS011;49037;41.898;25.004;2023-07-16T10:50:52;9.68;;;6.88;;
62931;SDS011;49037;41.898;25.004;2023-07-16T10:53:42;8.02;;;5.95;;
62931;SDS011;49037;41.898;25.004;2023-07-16T10:56:08;9.48;;;6.70;;
62931;SDS011;49037;41.898;25.004;2023-07-16T10:58:37;8.52;;;7.15;;
62931;SDS011;49037;41.898;25.004;2023-07-16T11:01:07;9.95;;;6.10;;
62931;SDS011;49037;41.898;25.004;2023-07-16T11:03:44;15.77;;;6.75;;
62931;SDS011;49037;41.898;25.004;2023-07-16T11:06:10;10.65;;;6.18;;
62931;SDS011;49037;41.898;25.004;2023-07-16T11:08:43;7.53;;;6.72;;
62931;SDS011;49037;41.898;25.004;2023-07-16T11:11:08;7.47;;;6.50;;
62931;SDS011;49037;41.898;25.004;2023-07-16T11:13:50;10.10;;;6.00;;
62931;SDS011;49037;41.898;25.004;2023-07-16T11:16:16;10.05;;;5.93;;
62931;SDS011;49037;41.898;25.004;2023-07-16T11:18:50;10.20;;;6.30;;
62931;SDS011;49037;41.898;25.004;2023-07-16T11:21:41;7.85;;;5.70;;
62931;SDS011;49037;41.898;25.004;2023-07-16T11:24:12;8.82;;;6.90;;
62931;SDS011;49037;41.898;25.004;2023-07-16T11:26:42;8.23;;;6.13;;
62931;SDS011;49037;41.898;25.004;2023-07-16T11:29:25;10.00;;;6.13;;
62931;SDS011;49037;41.898;25.004;2023-07-16T11:35:03;8.10;;;6.32;;
62931;SDS011;49037;41.898;25.004;2023-07-16T11:37:35;8.18;;;6.03;;
62931;SDS011;49037;41.898;25.004;2023-07-16T11:40:02;8.02;;;6.40;;
62931;SDS011;49037;41.898;25.004;2023-07-16T11:42:36;8.23;;;6.00;;
62931;SDS011;49037;41.898;25.004;2023-07-16T11:48:18;12.23;;;6.40;;
62931;SDS011;49037;41.898;25.004;2023-07-16T11:50:44;8.80;;;6.05;;
62931;SDS011;49037;41.898;25.004;2023-07-16T11:53:19;8.75;;;6.43;;
62931;SDS011;49037;41.898;25.004;2023-07-16T11:56:14;9.52;;;5.80;;
62931;SDS011;49037;41.898;25.004;2023-07-16T11:58:48;8.88;;;6.13;;
62931;SDS011;49037;41.898;25.004;2023-07-16T12:03:47;8.10;;;6.05;;
62931;SDS011;49037;41.898;25.004;2023-07-16T12:09:15;10.10;;;6.03;;
62931;SDS011;49037;41.898;25.004;2023-07-16T12:11:41;9.02;;;6.03;;
62931;SDS011;49037;41.898;25.004;2023-07-16T12:16:37;9.00;;;5.85;;
62931;SDS011;49037;41.898;25.004;2023-07-16T12:19:02;8.07;;;6.32;;
62931;SDS011;49037;41.898;25.004;2023-07-16T12:25:16;9.63;;;6.00;;
62931;SDS011;49037;41.898;25.004;2023-07-16T12:28:00;8.60;;;6.40;;
62931;SDS011;49037;41.898;25.004;2023-07-16T12:31:06;12.90;;;6.80;;
62931;SDS011;49037;41.898;25.004;2023-07-16T12:37:51;9.40;;;6.38;;
62931;SDS011;49037;41.898;25.004;2023-07-16T12:43:06;8.55;;;5.97;;
62931;SDS011;49037;41.898;25.004;2023-07-16T12:46:11;7.32;;;5.75;;
62931;SDS011;49037;41.898;25.004;2023-07-16T13:02:05;8.10;;;5.38;;
62931;SDS011;49037;41.898;25.004;2023-07-16T13:04:31;8.70;;;5.38;;
62931;SDS011;49037;41.898;25.004;2023-07-16T13:06:56;7.05;;;5.13;;
62931;SDS011;49037;41.898;25.004;2023-07-16T13:09:22;9.13;;;5.45;;
62931;SDS011;49037;41.898;25.004;2023-07-16T13:11:48;8.88;;;5.60;;
62931;SDS011;49037;41.898;25.004;2023-07-16T13:14:13;11.13;;;5.68;;
62931;SDS011;49037;41.898;25.004;2023-07-16T13:16:39;7.53;;;5.03;;
62931;SDS011;49037;41.898;25.004;2023-07-16T13:19:04;7.03;;;4.80;;
62931;SDS011;49037;41.898;25.004;2023-07-16T13:21:30;6.97;;;4.70;;
62931;SDS011;49037;41.898;25.004;2023-07-16T13:23:55;7.68;;;4.90;;
62931;SDS011;49037;41.898;25.004;2023-07-16T13:26:21;5.47;;;4.97;;
62931;SDS011;49037;41.898;25.004;2023-07-16T13:28:46;7.35;;;5.00;;
62931;SDS011;49037;41.898;25.004;2023-07-16T13:31:12;7.10;;;5.30;;
62931;SDS011;49037;41.898;25.004;2023-07-16T13:33:37;8.18;;;5.53;;
62931;SDS011;49037;41.898;25.004;2023-07-16T13:36:05;7.40;;;5.03;;
62931;SDS011;49037;41.898;25.004;2023-07-16T13:38:30;7.72;;;5.00;;
62931;SDS011;49037;41.898;25.004;2023-07-16T13:40:56;7.55;;;5.00;;
62931;SDS011;49037;41.898;25.004;2023-07-16T13:43:24;5.55;;;4.72;;
62931;SDS011;49037;41.898;25.004;2023-07-16T13:45:50;8.02;;;5.50;;
62931;SDS011;49037;41.898;25.004;2023-07-16T13:48:20;7.10;;;5.38;;
62931;SDS011;49037;41.898;25.004;2023-07-16T13:50:51;7.53;;;5.20;;
62931;SDS011;49037;41.898;25.004;2023-07-16T13:53:17;7.85;;;5.30;;
62931;SDS011;49037;41.898;25.004;2023-07-16T13:55:42;7.93;;;5.15;;
62931;SDS011;49037;41.898;25.004;2023-07-16T13:58:13;7.03;;;5.20;;
62931;SDS011;49037;41.898;25.004;2023-07-16T14:00:45;9.93;;;5.65;;
62931;SDS011;49037;41.898;25.004;2023-07-16T14:03:10;9.25;;;5.40;;
62931;SDS011;49037;41.898;25.004;2023-07-16T14:05:47;9.90;;;5.55;;
62931;SDS011;49037;41.898;25.004;2023-07-16T14:08:19;10.73;;;5.15;;
62931;SDS011;49037;41.898;25.004;2023-07-16T14:11:07;6.32;;;5.63;;
62931;SDS011;49037;41.898;25.004;2023-07-16T14:13:33;12.85;;;5.60;;
62931;SDS011;49037;41.898;25.004;2023-07-16T14:16:01;6.13;;;5.50;;
62931;SDS011;49037;41.898;25.004;2023-07-16T14:21:29;9.48;;;5.25;;
62931;SDS011;49037;41.898;25.004;2023-07-16T14:24:28;9.63;;;5.20;;
62931;SDS011;49037;41.898;25.004;2023-07-16T14:29:26;7.18;;;5.75;;
62931;SDS011;49037;41.898;25.004;2023-07-16T14:31:54;6.25;;;4.88;;
62931;SDS011;49037;41.898;25.004;2023-07-16T14:34:22;7.25;;;5.50;;
62931;SDS011;49037;41.898;25.004;2023-07-16T14:36:48;8.55;;;5.30;;
62931;SDS011;49037;41.898;25.004;2023-07-16T14:39:13;8.60;;;5.90;;
62931;SDS011;49037;41.898;25.004;2023-07-16T14:41:44;6.72;;;5.07;;
62931;SDS011;49037;41.898;25.004;2023-07-16T14:44:13;7.18;;;5.57;;
62931;SDS011;49037;41.898;25.004;2023-07-16T14:46:44;9.20;;;5.25;;
62931;SDS011;49037;41.898;25.004;2023-07-16T14:49:10;9.60;;;5.25;;
62931;SDS011;49037;41.898;25.004;2023-07-16T14:51:35;7.57;;;5.35;;
62931;SDS011;49037;41.898;25.004;2023-07-16T14:57:25;8.93;;;5.25;;
62931;SDS011;49037;41.898;25.004;2023-07-16T14:59:53;8.95;;;5.40;;
62931;SDS011;49037;41.898;25.004;2023-07-16T15:02:24;8.35;;;5.28;;
62931;SDS011;49037;41.898;25.004;2023-07-16T15:04:49;7.10;;;5.32;;
62931;SDS011;49037;41.898;25.004;2023-07-16T15:07:19;6.43;;;5.10;;
62931;SDS011;49037;41.898;25.004;2023-07-16T15:09:47;9.55;;;5.32;;
62931;SDS011;49037;41.898;25.004;2023-07-16T15:12:12;5.97;;;5.05;;
62931;SDS011;49037;41.898;25.004;2023-07-16T15:14:38;8.18;;;5.55;;
62931;SDS011;49037;41.898;25.004;2023-07-16T15:17:07;6.97;;;4.95;;
62931;SDS011;49037;41.898;25.004;2023-07-16T15:19:45;7.78;;;5.38;;
62931;SDS011;49037;41.898;25.004;2023-07-16T15:22:43;8.43;;;5.45;;
62931;SDS011;49037;41.898;25.004;2023-07-16T15:25:18;7.88;;;5.43;;
62931;SDS011;49037;41.898;25.004;2023-07-16T15:27:47;8.57;;;5.35;;
62931;SDS011;49037;41.898;25.004;2023-07-16T15:30:18;8.05;;;5.78;;
62931;SDS011;49037;41.898;25.004;2023-07-16T15:32:46;8.40;;;5.22;;
62931;SDS011;49037;41.898;25.004;2023-07-16T15:35:21;7.80;;;5.28;;
62931;SDS011;49037;41.898;25.004;2023-07-16T15:37:47;8.48;;;5.20;;
62931;SDS011;49037;41.898;25.004;2023-07-16T15:40:17;7.72;;;5.22;;
62931;SDS011;49037;41.898;25.004;2023-07-16T15:42:43;6.55;;;5.07;;
62931;SDS011;49037;41.898;25.004;2023-07-16T15:45:09;9.05;;;5.45;;
62931;SDS011;49037;41.898;25.004;2023-07-16T15:47:38;7.57;;;5.57;;
62931;SDS011;49037;41.898;25.004;2023-07-16T15:50:12;9.15;;;5.40;;
62931;SDS011;49037;41.898;25.004;2023-07-16T15:52:47;9.10;;;5.30;;
62931;SDS011;49037;41.898;25.004;2023-07-16T15:55:13;7.10;;;5.25;;
62931;SDS011;49037;41.898;25.004;2023-07-16T15:57:38;7.70;;;5.30;;
62931;SDS011;49037;41.898;25.004;2023-07-16T16:00:08;5.97;;;5.22;;
62931;SDS011;49037;41.898;25.004;2023-07-16T16:02:43;9.25;;;5.18;;
62931;SDS011;49037;41.898;25.004;2023-07-16T16:05:09;7.07;;;5.38;;
62931;SDS011;49037;41.898;25.004;2023-07-16T16:10:38;9.77;;;5.80;;
62931;SDS011;49037;41.898;25.004;2023-07-16T16:13:36;7.18;;;5.35;;
62931;SDS011;49037;41.898;25.004;2023-07-16T16:16:55;11.05;;;6.50;;
62931;SDS011;49037;41.898;25.004;2023-07-16T16:19:39;5.93;;;5.25;;
62931;SDS011;49037;41.898;25.004;2023-07-16T16:24:44;13.10;;;5.45;;
62931;SDS011;49037;41.898;25.004;2023-07-16T16:27:27;9.52;;;6.03;;
62931;SDS011;49037;41.898;25.004;2023-07-16T16:29:55;6.32;;;5.28;;
62931;SDS011;49037;41.898;25.004;2023-07-16T16:32:28;6.18;;;5.10;;
62931;SDS011;49037;41.898;25.004;2023-07-16T16:34:56;7.22;;;5.72;;
62931;SDS011;49037;41.898;25.004;2023-07-16T16:37:24;8.38;;;5.55;;
62931;SDS011;49037;41.898;25.004;2023-07-16T16:39:50;10.02;;;6.18;;
62931;SDS011;49037;41.898;25.004;2023-07-16T16:42:19;7.53;;;5.50;;
62931;SDS011;49037;41.898;25.004;2023-07-16T16:44:44;7.03;;;5.78;;
62931;SDS011;49037;41.898;25.004;2023-07-16T16:47:10;8.23;;;5.35;;
62931;SDS011;49037;41.898;25.004;2023-07-16T16:49:35;7.03;;;5.30;;
62931;SDS011;49037;41.898;25.004;2023-07-16T16:52:01;8.45;;;5.97;;
62931;SDS011;49037;41.898;25.004;2023-07-16T16:54:27;8.27;;;5.50;;
62931;SDS011;49037;41.898;25.004;2023-07-16T16:57:00;8.30;;;5.65;;
62931;SDS011;49037;41.898;25.004;2023-07-16T16:59:25;9.88;;;5.65;;
62931;SDS011;49037;41.898;25.004;2023-07-16T17:01:51;9.57;;;6.18;;
62931;SDS011;49037;41.898;25.004;2023-07-16T17:04:19;8.25;;;5.57;;
62931;SDS011;49037;41.898;25.004;2023-07-16T17:06:47;7.30;;;5.55;;
62931;SDS011;49037;41.898;25.004;2023-07-16T17:09:13;9.10;;;6.63;;
62931;SDS011;49037;41.898;25.004;2023-07-16T17:11:39;9.05;;;6.00;;
62931;SDS011;49037;41.898;25.004;2023-07-16T17:14:12;7.13;;;5.97;;
62931;SDS011;49037;41.898;25.004;2023-07-16T17:19:40;12.43;;;5.78;;
62931;SDS011;49037;41.898;25.004;2023-07-16T17:22:15;9.93;;;6.28;;
62931;SDS011;49037;41.898;25.004;2023-07-16T17:24:43;8.45;;;5.70;;
62931;SDS011;49037;41.898;25.004;2023-07-16T17:27:08;7.50;;;5.82;;
62931;SDS011;49037;41.898;25.004;2023-07-16T17:29:44;8.43;;;6.03;;
62931;SDS011;49037;41.898;25.004;2023-07-16T17:32:30;8.30;;;5.93;;
62931;SDS011;49037;41.898;25.004;2023-07-16T17:35:01;7.57;;;5.70;;
62931;SDS011;49037;41.898;25.004;2023-07-16T17:53:21;8.32;;;5.88;;
62931;SDS011;49037;41.898;25.004;2023-07-16T18:09:11;9.07;;;6.13;;
62931;SDS011;49037;41.898;25.004;2023-07-16T18:11:44;9.25;;;6.25;;
62931;SDS011;49037;41.898;25.004;2023-07-16T18:14:10;9.50;;;5.82;;
62931;SDS011;49037;41.898;25.004;2023-07-16T18:20:29;11.88;;;6.68;;
62931;SDS011;49037;41.898;25.004;2023-07-16T18:23:34;8.00;;;5.85;;
62931;SDS011;49037;41.898;25.004;2023-07-16T18:26:16;10.25;;;6.05;;
62931;SDS011;49037;41.898;25.004;2023-07-16T18:28:55;7.68;;;6.18;;
62931;SDS011;49037;41.898;25.004;2023-07-16T18:31:30;9.45;;;5.47;;
62931;SDS011;49037;41.898;25.004;2023-07-16T18:34:05;10.60;;;5.57;;
62931;SDS011;49037;41.898;25.004;2023-07-16T18:37:20;10.88;;;5.97;;
62931;SDS011;49037;41.898;25.004;2023-07-16T18:39:51;10.68;;;6.35;;
62931;SDS011;49037;41.898;25.004;2023-07-16T19:00:13;8.65;;;6.60;;
62931;SDS011;49037;41.898;25.004;2023-07-16T19:03:05;10.55;;;6.35;;
62931;SDS011;49037;41.898;25.004;2023-07-16T19:05:33;8.80;;;6.85;;
62931;SDS011;49037;41.898;25.004;2023-07-16T19:13:57;10.23;;;6.78;;
62931;SDS011;49037;41.898;25.004;2023-07-16T19:16:48;9.40;;;6.60;;
62931;SDS011;49037;41.898;25.004;2023-07-16T19:19:13;8.82;;;6.20;;